Allison, Colorado
Current Conditions -  °F | °C
As of 10:53 PM on Wednesday 26 Nov 2014 (Local Time) from KDRO Reporting Station
Clear Clear  
Wind Chill: 26°   Ceiling: Unl
Heat Index: 26°   Visibility: 10mi
Dew Point: 19°   Wind: 3mph
Humidity: 75%   Direction: NA
Pressure: 30.46"   Gusts: NA
Location:  37.0891°N, 107.649°W
Report Text: KDRO 270553Z AUTO VRB03KT 10SM CLR M03/M07 A3046 RMK AO2 SLP335 T10331072 10067 21039 51017
Loading
Personal Weather Stations






























Interactive Weather Map New forecast layout! Learn more

10-Day Weather Forecast

Advertisements
Track Severe Weather on mobile